sensor_id;sensor_type;location;lat;lon;timestamp;P1;durP1;ratioP1;P2;durP2;ratioP2
27706;SDS011;36332;51.384;0.040;2023-09-18T00:00:44;11.25;;;3.88;;
27706;SDS011;36332;51.384;0.040;2023-09-18T00:03:12;9.02;;;3.20;;
27706;SDS011;36332;51.384;0.040;2023-09-18T00:05:39;6.85;;;3.25;;
27706;SDS011;36332;51.384;0.040;2023-09-18T00:08:07;5.78;;;2.83;;
27706;SDS011;36332;51.384;0.040;2023-09-18T00:10:35;8.30;;;3.75;;
27706;SDS011;36332;51.384;0.040;2023-09-18T00:13:03;7.95;;;3.30;;
27706;SDS011;36332;51.384;0.040;2023-09-18T00:15:30;7.20;;;3.38;;
27706;SDS011;36332;51.384;0.040;2023-09-18T00:17:58;5.68;;;2.97;;
27706;SDS011;36332;51.384;0.040;2023-09-18T00:20:26;12.73;;;3.70;;
27706;SDS011;36332;51.384;0.040;2023-09-18T00:22:54;5.82;;;2.38;;
27706;SDS011;36332;51.384;0.040;2023-09-18T00:25:22;5.82;;;2.08;;
27706;SDS011;36332;51.384;0.040;2023-09-18T00:27:50;9.23;;;2.90;;
27706;SDS011;36332;51.384;0.040;2023-09-18T00:30:20;5.43;;;2.42;;
27706;SDS011;36332;51.384;0.040;2023-09-18T00:32:48;10.18;;;2.53;;
27706;SDS011;36332;51.384;0.040;2023-09-18T00:35:17;7.53;;;2.35;;
27706;SDS011;36332;51.384;0.040;2023-09-18T00:37:44;4.25;;;2.08;;
27706;SDS011;36332;51.384;0.040;2023-09-18T00:40:12;5.65;;;2.65;;
27706;SDS011;36332;51.384;0.040;2023-09-18T00:42:39;10.15;;;2.40;;
27706;SDS011;36332;51.384;0.040;2023-09-18T00:45:07;9.32;;;2.20;;
27706;SDS011;36332;51.384;0.040;2023-09-18T00:47:36;8.45;;;2.85;;
27706;SDS011;36332;51.384;0.040;2023-09-18T00:50:05;5.90;;;2.35;;
27706;SDS011;36332;51.384;0.040;2023-09-18T00:52:37;4.28;;;1.85;;
27706;SDS011;36332;51.384;0.040;2023-09-18T00:55:05;4.88;;;1.90;;
27706;SDS011;36332;51.384;0.040;2023-09-18T00:57:35;3.78;;;1.83;;
27706;SDS011;36332;51.384;0.040;2023-09-18T01:00:03;5.28;;;1.83;;
27706;SDS011;36332;51.384;0.040;2023-09-18T01:02:34;4.32;;;2.22;;
27706;SDS011;36332;51.384;0.040;2023-09-18T01:05:02;10.52;;;2.70;;
27706;SDS011;36332;51.384;0.040;2023-09-18T01:07:30;3.50;;;2.20;;
27706;SDS011;36332;51.384;0.040;2023-09-18T01:09:57;5.78;;;2.58;;
27706;SDS011;36332;51.384;0.040;2023-09-18T01:12:39;7.95;;;1.85;;
27706;SDS011;36332;51.384;0.040;2023-09-18T01:15:21;5.93;;;2.70;;
27706;SDS011;36332;51.384;0.040;2023-09-18T01:17:53;18.00;;;3.78;;
27706;SDS011;36332;51.384;0.040;2023-09-18T01:20:21;5.18;;;2.30;;
27706;SDS011;36332;51.384;0.040;2023-09-18T01:22:49;8.60;;;3.42;;
27706;SDS011;36332;51.384;0.040;2023-09-18T01:25:17;11.48;;;3.05;;
27706;SDS011;36332;51.384;0.040;2023-09-18T01:27:44;15.52;;;4.50;;
27706;SDS011;36332;51.384;0.040;2023-09-18T01:30:12;18.58;;;3.35;;
27706;SDS011;36332;51.384;0.040;2023-09-18T01:32:40;11.98;;;4.38;;
27706;SDS011;36332;51.384;0.040;2023-09-18T01:35:10;8.18;;;3.22;;
27706;SDS011;36332;51.384;0.040;2023-09-18T01:37:39;10.48;;;3.63;;
27706;SDS011;36332;51.384;0.040;2023-09-18T01:40:08;12.77;;;3.38;;
27706;SDS011;36332;51.384;0.040;2023-09-18T01:42:38;12.63;;;3.80;;
27706;SDS011;36332;51.384;0.040;2023-09-18T01:45:07;13.68;;;3.33;;
27706;SDS011;36332;51.384;0.040;2023-09-18T01:47:35;10.98;;;3.47;;
27706;SDS011;36332;51.384;0.040;2023-09-18T01:50:04;9.57;;;3.22;;
27706;SDS011;36332;51.384;0.040;2023-09-18T01:52:32;16.90;;;3.47;;
27706;SDS011;36332;51.384;0.040;2023-09-18T01:55:02;13.57;;;3.45;;
27706;SDS011;36332;51.384;0.040;2023-09-18T01:57:33;11.77;;;3.80;;
27706;SDS011;36332;51.384;0.040;2023-09-18T02:00:01;12.35;;;3.13;;
27706;SDS011;36332;51.384;0.040;2023-09-18T02:02:38;7.57;;;2.88;;
27706;SDS011;36332;51.384;0.040;2023-09-18T02:05:26;12.80;;;3.53;;
27706;SDS011;36332;51.384;0.040;2023-09-18T02:07:55;11.63;;;3.40;;
27706;SDS011;36332;51.384;0.040;2023-09-18T02:10:26;6.80;;;3.88;;
27706;SDS011;36332;51.384;0.040;2023-09-18T02:12:56;14.57;;;3.17;;
27706;SDS011;36332;51.384;0.040;2023-09-18T02:15:23;10.75;;;3.20;;
27706;SDS011;36332;51.384;0.040;2023-09-18T02:17:52;10.55;;;3.22;;
27706;SDS011;36332;51.384;0.040;2023-09-18T02:20:19;8.05;;;3.47;;
27706;SDS011;36332;51.384;0.040;2023-09-18T02:22:47;9.68;;;2.97;;
27706;SDS011;36332;51.384;0.040;2023-09-18T02:25:15;6.40;;;3.25;;
27706;SDS011;36332;51.384;0.040;2023-09-18T02:27:43;11.32;;;2.80;;
27706;SDS011;36332;51.384;0.040;2023-09-18T02:30:11;9.88;;;3.22;;
27706;SDS011;36332;51.384;0.040;2023-09-18T02:32:39;7.57;;;3.65;;
27706;SDS011;36332;51.384;0.040;2023-09-18T02:35:07;8.25;;;3.25;;
27706;SDS011;36332;51.384;0.040;2023-09-18T02:37:35;7.18;;;3.85;;
27706;SDS011;36332;51.384;0.040;2023-09-18T02:40:03;11.73;;;3.17;;
27706;SDS011;36332;51.384;0.040;2023-09-18T02:42:32;16.15;;;4.05;;
27706;SDS011;36332;51.384;0.040;2023-09-18T02:45:00;6.10;;;3.55;;
27706;SDS011;36332;51.384;0.040;2023-09-18T02:47:27;14.82;;;4.53;;
27706;SDS011;36332;51.384;0.040;2023-09-18T02:49:55;10.63;;;4.25;;
27706;SDS011;36332;51.384;0.040;2023-09-18T02:52:23;11.30;;;3.53;;
27706;SDS011;36332;51.384;0.040;2023-09-18T02:54:51;9.13;;;3.42;;
27706;SDS011;36332;51.384;0.040;2023-09-18T02:57:18;14.73;;;4.13;;
27706;SDS011;36332;51.384;0.040;2023-09-18T02:59:47;12.82;;;4.07;;
27706;SDS011;36332;51.384;0.040;2023-09-18T03:02:14;7.75;;;3.92;;
27706;SDS011;36332;51.384;0.040;2023-09-18T03:04:42;12.02;;;4.63;;
27706;SDS011;36332;51.384;0.040;2023-09-18T03:07:12;10.82;;;4.22;;
27706;SDS011;36332;51.384;0.040;2023-09-18T03:09:40;21.10;;;4.80;;
27706;SDS011;36332;51.384;0.040;2023-09-18T03:12:08;15.50;;;4.18;;
27706;SDS011;36332;51.384;0.040;2023-09-18T03:14:35;12.38;;;4.43;;
27706;SDS011;36332;51.384;0.040;2023-09-18T03:17:03;15.13;;;4.53;;
27706;SDS011;36332;51.384;0.040;2023-09-18T03:19:31;15.60;;;4.85;;
27706;SDS011;36332;51.384;0.040;2023-09-18T03:22:01;14.55;;;4.47;;
27706;SDS011;36332;51.384;0.040;2023-09-18T03:24:29;17.92;;;5.80;;
27706;SDS011;36332;51.384;0.040;2023-09-18T03:26:57;14.82;;;5.38;;
27706;SDS011;36332;51.384;0.040;2023-09-18T03:29:25;16.30;;;6.97;;
27706;SDS011;36332;51.384;0.040;2023-09-18T03:31:53;15.00;;;5.47;;
27706;SDS011;36332;51.384;0.040;2023-09-18T03:34:23;12.77;;;5.28;;
27706;SDS011;36332;51.384;0.040;2023-09-18T03:36:53;21.17;;;5.75;;
27706;SDS011;36332;51.384;0.040;2023-09-18T03:39:21;17.63;;;5.30;;
27706;SDS011;36332;51.384;0.040;2023-09-18T03:41:49;13.98;;;5.38;;
27706;SDS011;36332;51.384;0.040;2023-09-18T03:44:16;22.35;;;5.40;;
27706;SDS011;36332;51.384;0.040;2023-09-18T03:46:44;17.40;;;6.25;;
27706;SDS011;36332;51.384;0.040;2023-09-18T03:49:12;19.35;;;5.68;;
27706;SDS011;36332;51.384;0.040;2023-09-18T03:51:40;20.70;;;5.80;;
27706;SDS011;36332;51.384;0.040;2023-09-18T03:54:08;29.98;;;6.22;;
27706;SDS011;36332;51.384;0.040;2023-09-18T03:56:35;17.58;;;5.72;;
27706;SDS011;36332;51.384;0.040;2023-09-18T03:59:03;24.05;;;6.47;;
27706;SDS011;36332;51.384;0.040;2023-09-18T04:01:31;27.70;;;7.28;;
27706;SDS011;36332;51.384;0.040;2023-09-18T04:03:59;29.33;;;7.20;;
27706;SDS011;36332;51.384;0.040;2023-09-18T04:06:41;20.52;;;5.82;;
27706;SDS011;36332;51.384;0.040;2023-09-18T04:09:10;17.27;;;5.82;;
27706;SDS011;36332;51.384;0.040;2023-09-18T04:11:38;23.38;;;6.10;;
27706;SDS011;36332;51.384;0.040;2023-09-18T04:14:06;21.63;;;6.10;;
27706;SDS011;36332;51.384;0.040;2023-09-18T04:16:33;25.70;;;6.53;;
27706;SDS011;36332;51.384;0.040;2023-09-18T04:19:03;23.13;;;5.28;;
27706;SDS011;36332;51.384;0.040;2023-09-18T04:21:31;23.48;;;5.95;;
27706;SDS011;36332;51.384;0.040;2023-09-18T04:23:58;19.58;;;6.38;;
27706;SDS011;36332;51.384;0.040;2023-09-18T04:26:26;19.55;;;6.20;;
27706;SDS011;36332;51.384;0.040;2023-09-18T04:28:58;23.70;;;6.00;;
27706;SDS011;36332;51.384;0.040;2023-09-18T04:31:28;24.67;;;7.13;;
27706;SDS011;36332;51.384;0.040;2023-09-18T04:33:56;21.02;;;5.85;;
27706;SDS011;36332;51.384;0.040;2023-09-18T04:36:24;25.23;;;6.88;;
27706;SDS011;36332;51.384;0.040;2023-09-18T04:38:53;15.20;;;6.18;;
27706;SDS011;36332;51.384;0.040;2023-09-18T04:41:21;24.65;;;7.93;;
27706;SDS011;36332;51.384;0.040;2023-09-18T04:43:49;19.70;;;6.75;;
27706;SDS011;36332;51.384;0.040;2023-09-18T04:46:17;21.30;;;7.45;;
27706;SDS011;36332;51.384;0.040;2023-09-18T04:48:45;20.48;;;7.68;;
27706;SDS011;36332;51.384;0.040;2023-09-18T04:51:14;28.55;;;8.32;;
27706;SDS011;36332;51.384;0.040;2023-09-18T04:53:42;19.42;;;6.43;;
27706;SDS011;36332;51.384;0.040;2023-09-18T04:56:10;27.50;;;9.65;;
27706;SDS011;36332;51.384;0.040;2023-09-18T04:58:38;20.45;;;7.07;;
27706;SDS011;36332;51.384;0.040;2023-09-18T05:01:06;18.50;;;7.95;;
27706;SDS011;36332;51.384;0.040;2023-09-18T05:03:37;20.42;;;8.13;;
27706;SDS011;36332;51.384;0.040;2023-09-18T05:06:09;24.50;;;8.63;;
27706;SDS011;36332;51.384;0.040;2023-09-18T05:08:37;21.00;;;8.05;;
27706;SDS011;36332;51.384;0.040;2023-09-18T05:11:04;24.45;;;9.63;;
27706;SDS011;36332;51.384;0.040;2023-09-18T05:13:32;28.35;;;8.77;;
27706;SDS011;36332;51.384;0.040;2023-09-18T05:16:00;19.38;;;8.85;;
27706;SDS011;36332;51.384;0.040;2023-09-18T05:18:27;29.95;;;9.43;;
27706;SDS011;36332;51.384;0.040;2023-09-18T05:20:55;19.35;;;8.32;;
27706;SDS011;36332;51.384;0.040;2023-09-18T05:23:23;20.25;;;8.50;;
27706;SDS011;36332;51.384;0.040;2023-09-18T05:25:51;18.83;;;8.90;;
27706;SDS011;36332;51.384;0.040;2023-09-18T05:28:18;28.20;;;9.93;;
27706;SDS011;36332;51.384;0.040;2023-09-18T05:30:46;18.63;;;8.88;;
27706;SDS011;36332;51.384;0.040;2023-09-18T05:33:14;18.05;;;8.85;;
27706;SDS011;36332;51.384;0.040;2023-09-18T05:35:42;22.58;;;9.38;;
27706;SDS011;36332;51.384;0.040;2023-09-18T05:38:12;23.55;;;8.15;;
27706;SDS011;36332;51.384;0.040;2023-09-18T05:40:41;25.75;;;9.50;;
27706;SDS011;36332;51.384;0.040;2023-09-18T05:43:10;19.30;;;8.82;;
27706;SDS011;36332;51.384;0.040;2023-09-18T05:45:39;23.17;;;9.45;;
27706;SDS011;36332;51.384;0.040;2023-09-18T05:48:07;19.98;;;9.00;;
27706;SDS011;36332;51.384;0.040;2023-09-18T05:50:37;20.48;;;8.90;;
27706;SDS011;36332;51.384;0.040;2023-09-18T05:53:05;18.20;;;7.82;;
27706;SDS011;36332;51.384;0.040;2023-09-18T05:55:34;22.05;;;9.75;;
27706;SDS011;36332;51.384;0.040;2023-09-18T05:58:02;14.60;;;7.72;;
27706;SDS011;36332;51.384;0.040;2023-09-18T06:00:31;22.92;;;9.90;;
27706;SDS011;36332;51.384;0.040;2023-09-18T06:02:59;17.60;;;10.05;;
27706;SDS011;36332;51.384;0.040;2023-09-18T06:05:27;28.70;;;11.23;;
27706;SDS011;36332;51.384;0.040;2023-09-18T06:07:58;23.45;;;11.32;;
27706;SDS011;36332;51.384;0.040;2023-09-18T06:10:26;20.25;;;8.52;;
27706;SDS011;36332;51.384;0.040;2023-09-18T06:12:55;22.83;;;9.35;;
27706;SDS011;36332;51.384;0.040;2023-09-18T06:15:22;14.40;;;7.85;;
27706;SDS011;36332;51.384;0.040;2023-09-18T06:17:50;21.17;;;9.77;;
27706;SDS011;36332;51.384;0.040;2023-09-18T06:20:18;25.13;;;8.82;;
27706;SDS011;36332;51.384;0.040;2023-09-18T06:22:46;18.98;;;9.07;;
27706;SDS011;36332;51.384;0.040;2023-09-18T06:25:14;19.38;;;9.60;;
27706;SDS011;36332;51.384;0.040;2023-09-18T06:27:42;21.08;;;9.60;;
27706;SDS011;36332;51.384;0.040;2023-09-18T06:30:10;26.77;;;9.73;;
27706;SDS011;36332;51.384;0.040;2023-09-18T06:32:38;21.20;;;9.10;;
27706;SDS011;36332;51.384;0.040;2023-09-18T06:35:06;17.88;;;8.07;;
27706;SDS011;36332;51.384;0.040;2023-09-18T06:37:34;24.83;;;10.27;;
27706;SDS011;36332;51.384;0.040;2023-09-18T06:40:01;23.63;;;9.65;;
27706;SDS011;36332;51.384;0.040;2023-09-18T06:42:31;23.40;;;10.18;;
27706;SDS011;36332;51.384;0.040;2023-09-18T06:45:00;22.27;;;9.30;;
27706;SDS011;36332;51.384;0.040;2023-09-18T06:47:30;22.23;;;11.02;;
27706;SDS011;36332;51.384;0.040;2023-09-18T06:49:58;22.23;;;10.90;;
27706;SDS011;36332;51.384;0.040;2023-09-18T06:52:27;19.15;;;11.82;;
27706;SDS011;36332;51.384;0.040;2023-09-18T06:54:56;20.55;;;11.38;;
27706;SDS011;36332;51.384;0.040;2023-09-18T06:57:25;19.88;;;10.10;;
27706;SDS011;36332;51.384;0.040;2023-09-18T06:59:53;20.20;;;9.80;;
27706;SDS011;36332;51.384;0.040;2023-09-18T07:02:20;20.13;;;11.38;;
27706;SDS011;36332;51.384;0.040;2023-09-18T07:04:48;20.52;;;11.15;;
27706;SDS011;36332;51.384;0.040;2023-09-18T07:07:16;19.52;;;10.27;;
27706;SDS011;36332;51.384;0.040;2023-09-18T07:09:44;23.08;;;10.23;;
27706;SDS011;36332;51.384;0.040;2023-09-18T07:12:15;14.82;;;9.10;;
27706;SDS011;36332;51.384;0.040;2023-09-18T07:14:42;22.67;;;10.48;;
27706;SDS011;36332;51.384;0.040;2023-09-18T07:17:10;13.70;;;7.32;;
27706;SDS011;36332;51.384;0.040;2023-09-18T07:19:38;12.65;;;7.60;;
27706;SDS011;36332;51.384;0.040;2023-09-18T07:22:06;22.08;;;7.65;;
27706;SDS011;36332;51.384;0.040;2023-09-18T07:24:34;20.25;;;7.03;;
27706;SDS011;36332;51.384;0.040;2023-09-18T07:27:01;17.38;;;6.60;;
27706;SDS011;36332;51.384;0.040;2023-09-18T07:29:30;13.07;;;6.35;;
27706;SDS011;36332;51.384;0.040;2023-09-18T07:31:58;6.57;;;5.10;;
27706;SDS011;36332;51.384;0.040;2023-09-18T07:34:28;16.55;;;6.38;;
27706;SDS011;36332;51.384;0.040;2023-09-18T07:36:56;12.00;;;5.20;;
27706;SDS011;36332;51.384;0.040;2023-09-18T07:39:23;9.70;;;5.15;;
27706;SDS011;36332;51.384;0.040;2023-09-18T07:41:51;14.75;;;4.90;;
27706;SDS011;36332;51.384;0.040;2023-09-18T07:44:20;9.48;;;4.88;;
27706;SDS011;36332;51.384;0.040;2023-09-18T07:46:48;9.57;;;4.32;;
27706;SDS011;36332;51.384;0.040;2023-09-18T07:49:15;14.15;;;5.55;;
27706;SDS011;36332;51.384;0.040;2023-09-18T07:51:43;16.45;;;5.07;;
27706;SDS011;36332;51.384;0.040;2023-09-18T07:54:13;17.25;;;6.07;;
27706;SDS011;36332;51.384;0.040;2023-09-18T07:56:42;11.70;;;4.82;;
27706;SDS011;36332;51.384;0.040;2023-09-18T07:59:10;9.80;;;5.35;;
27706;SDS011;36332;51.384;0.040;2023-09-18T08:01:38;11.00;;;4.88;;
27706;SDS011;36332;51.384;0.040;2023-09-18T08:04:06;15.15;;;5.43;;
27706;SDS011;36332;51.384;0.040;2023-09-18T08:06:33;10.27;;;4.30;;
27706;SDS011;36332;51.384;0.040;2023-09-18T08:09:01;9.02;;;4.32;;
27706;SDS011;36332;51.384;0.040;2023-09-18T08:11:28;19.10;;;4.60;;
27706;SDS011;36332;51.384;0.040;2023-09-18T08:13:56;14.68;;;4.60;;
27706;SDS011;36332;51.384;0.040;2023-09-18T08:16:23;17.58;;;4.50;;
27706;SDS011;36332;51.384;0.040;2023-09-18T08:18:51;13.50;;;5.75;;
27706;SDS011;36332;51.384;0.040;2023-09-18T08:21:20;9.70;;;4.80;;
27706;SDS011;36332;51.384;0.040;2023-09-18T08:23:47;19.08;;;6.57;;
27706;SDS011;36332;51.384;0.040;2023-09-18T08:26:15;12.65;;;4.95;;
27706;SDS011;36332;51.384;0.040;2023-09-18T08:28:43;13.93;;;4.32;;
27706;SDS011;36332;51.384;0.040;2023-09-18T08:31:11;16.23;;;4.50;;
27706;SDS011;36332;51.384;0.040;2023-09-18T08:33:38;12.57;;;4.15;;
27706;SDS011;36332;51.384;0.040;2023-09-18T08:36:06;11.93;;;4.15;;
27706;SDS011;36332;51.384;0.040;2023-09-18T08:38:34;13.13;;;4.93;;
27706;SDS011;36332;51.384;0.040;2023-09-18T08:41:01;12.85;;;4.75;;
27706;SDS011;36332;51.384;0.040;2023-09-18T08:43:31;14.75;;;4.60;;
27706;SDS011;36332;51.384;0.040;2023-09-18T08:45:59;24.40;;;5.97;;
27706;SDS011;36332;51.384;0.040;2023-09-18T08:48:31;13.63;;;4.80;;
27706;SDS011;36332;51.384;0.040;2023-09-18T08:51:02;14.65;;;4.90;;
27706;SDS011;36332;51.384;0.040;2023-09-18T08:53:34;27.23;;;4.43;;
27706;SDS011;36332;51.384;0.040;2023-09-18T08:56:04;13.15;;;4.38;;
27706;SDS011;36332;51.384;0.040;2023-09-18T08:58:33;10.57;;;3.97;;
27706;SDS011;36332;51.384;0.040;2023-09-18T09:01:06;11.90;;;3.28;;
27706;SDS011;36332;51.384;0.040;2023-09-18T09:03:37;11.85;;;3.60;;
27706;SDS011;36332;51.384;0.040;2023-09-18T09:06:06;10.52;;;3.63;;
27706;SDS011;36332;51.384;0.040;2023-09-18T09:08:34;10.02;;;3.03;;
27706;SDS011;36332;51.384;0.040;2023-09-18T09:11:03;20.10;;;4.20;;
27706;SDS011;36332;51.384;0.040;2023-09-18T09:13:31;10.80;;;3.40;;
27706;SDS011;36332;51.384;0.040;2023-09-18T09:16:12;10.10;;;2.70;;
27706;SDS011;36332;51.384;0.040;2023-09-18T09:18:50;9.45;;;2.40;;
27706;SDS011;36332;51.384;0.040;2023-09-18T09:21:19;15.77;;;2.90;;
27706;SDS011;36332;51.384;0.040;2023-09-18T09:23:51;5.57;;;3.13;;
27706;SDS011;36332;51.384;0.040;2023-09-18T09:26:21;8.95;;;2.25;;
27706;SDS011;36332;51.384;0.040;2023-09-18T09:28:50;12.07;;;2.88;;
27706;SDS011;36332;51.384;0.040;2023-09-18T09:31:37;13.93;;;3.40;;
27706;SDS011;36332;51.384;0.040;2023-09-18T09:34:05;9.00;;;2.10;;
27706;SDS011;36332;51.384;0.040;2023-09-18T09:36:32;6.28;;;2.20;;
27706;SDS011;36332;51.384;0.040;2023-09-18T09:39:00;6.78;;;2.10;;
27706;SDS011;36332;51.384;0.040;2023-09-18T09:41:31;4.78;;;2.30;;
27706;SDS011;36332;51.384;0.040;2023-09-18T09:44:00;8.80;;;2.50;;
27706;SDS011;36332;51.384;0.040;2023-09-18T09:46:28;8.77;;;2.40;;
27706;SDS011;36332;51.384;0.040;2023-09-18T09:51:28;9.38;;;2.95;;
27706;SDS011;36332;51.384;0.040;2023-09-18T09:53:57;5.72;;;1.88;;
27706;SDS011;36332;51.384;0.040;2023-09-18T09:56:41;7.75;;;3.10;;
27706;SDS011;36332;51.384;0.040;2023-09-18T09:59:19;13.20;;;3.10;;
27706;SDS011;36332;51.384;0.040;2023-09-18T10:01:47;8.27;;;3.05;;
27706;SDS011;36332;51.384;0.040;2023-09-18T10:04:18;8.07;;;2.90;;
27706;SDS011;36332;51.384;0.040;2023-09-18T10:06:57;8.40;;;2.92;;
27706;SDS011;36332;51.384;0.040;2023-09-18T10:09:35;7.80;;;2.45;;
27706;SDS011;36332;51.384;0.040;2023-09-18T10:12:11;13.38;;;3.35;;
27706;SDS011;36332;51.384;0.040;2023-09-18T10:14:42;9.95;;;3.10;;
27706;SDS011;36332;51.384;0.040;2023-09-18T10:17:27;8.68;;;3.10;;
27706;SDS011;36332;51.384;0.040;2023-09-18T10:22:37;4.03;;;2.08;;
27706;SDS011;36332;51.384;0.040;2023-09-18T10:25:10;7.15;;;2.65;;
27706;SDS011;36332;51.384;0.040;2023-09-18T10:27:48;7.70;;;2.67;;
27706;SDS011;36332;51.384;0.040;2023-09-18T10:30:20;5.13;;;2.83;;
27706;SDS011;36332;51.384;0.040;2023-09-18T10:32:51;4.20;;;1.50;;
27706;SDS011;36332;51.384;0.040;2023-09-18T10:35:19;3.88;;;1.10;;
27706;SDS011;36332;51.384;0.040;2023-09-18T10:37:48;6.03;;;2.10;;
27706;SDS011;36332;51.384;0.040;2023-09-18T10:40:18;3.17;;;1.50;;
27706;SDS011;36332;51.384;0.040;2023-09-18T10:42:47;5.85;;;2.45;;
27706;SDS011;36332;51.384;0.040;2023-09-18T10:45:17;2.88;;;1.73;;
27706;SDS011;36332;51.384;0.040;2023-09-18T10:47:46;4.22;;;1.75;;
27706;SDS011;36332;51.384;0.040;2023-09-18T10:50:24;3.72;;;1.55;;
27706;SDS011;36332;51.384;0.040;2023-09-18T10:52:56;7.53;;;2.45;;
27706;SDS011;36332;51.384;0.040;2023-09-18T10:55:25;2.13;;;1.60;;
27706;SDS011;36332;51.384;0.040;2023-09-18T10:57:55;3.80;;;2.03;;
27706;SDS011;36332;51.384;0.040;2023-09-18T11:00:25;7.55;;;2.38;;
27706;SDS011;36332;51.384;0.040;2023-09-18T11:03:10;6.93;;;2.42;;
27706;SDS011;36332;51.384;0.040;2023-09-18T11:05:45;9.85;;;2.70;;
27706;SDS011;36332;51.384;0.040;2023-09-18T11:08:23;6.68;;;2.72;;
27706;SDS011;36332;51.384;0.040;2023-09-18T11:11:03;5.70;;;2.42;;
27706;SDS011;36332;51.384;0.040;2023-09-18T11:13:47;9.30;;;2.67;;
27706;SDS011;36332;51.384;0.040;2023-09-18T11:21:27;10.23;;;2.42;;
27706;SDS011;36332;51.384;0.040;2023-09-18T11:23:59;7.70;;;2.60;;
27706;SDS011;36332;51.384;0.040;2023-09-18T11:26:32;9.43;;;2.47;;
27706;SDS011;36332;51.384;0.040;2023-09-18T11:29:06;5.85;;;2.30;;
27706;SDS011;36332;51.384;0.040;2023-09-18T11:31:43;8.93;;;2.05;;
27706;SDS011;36332;51.384;0.040;2023-09-18T11:36:55;4.18;;;1.85;;
27706;SDS011;36332;51.384;0.040;2023-09-18T11:39:40;5.70;;;2.00;;
27706;SDS011;36332;51.384;0.040;2023-09-18T11:42:08;5.85;;;1.67;;
27706;SDS011;36332;51.384;0.040;2023-09-18T11:44:40;3.15;;;1.60;;
27706;SDS011;36332;51.384;0.040;2023-09-18T11:47:09;5.68;;;1.45;;
27706;SDS011;36332;51.384;0.040;2023-09-18T11:49:49;9.73;;;2.22;;
27706;SDS011;36332;51.384;0.040;2023-09-18T11:52:29;5.32;;;1.75;;
27706;SDS011;36332;51.384;0.040;2023-09-18T11:54:58;3.72;;;1.65;;
27706;SDS011;36332;51.384;0.040;2023-09-18T11:57:27;4.53;;;1.40;;
27706;SDS011;36332;51.384;0.040;2023-09-18T11:59:56;5.18;;;1.55;;
27706;SDS011;36332;51.384;0.040;2023-09-18T12:02:38;5.35;;;1.48;;
27706;SDS011;36332;51.384;0.040;2023-09-18T12:05:10;3.13;;;0.90;;
27706;SDS011;36332;51.384;0.040;2023-09-18T12:07:41;1.95;;;1.05;;
27706;SDS011;36332;51.384;0.040;2023-09-18T12:10:14;2.60;;;1.00;;
27706;SDS011;36332;51.384;0.040;2023-09-18T12:12:48;1.63;;;1.10;;
27706;SDS011;36332;51.384;0.040;2023-09-18T12:15:17;2.20;;;0.98;;
27706;SDS011;36332;51.384;0.040;2023-09-18T12:17:46;3.05;;;1.15;;
27706;SDS011;36332;51.384;0.040;2023-09-18T12:20:17;3.60;;;1.20;;
27706;SDS011;36332;51.384;0.040;2023-09-18T12:22:50;5.00;;;1.20;;
27706;SDS011;36332;51.384;0.040;2023-09-18T12:25:18;6.82;;;1.88;;
27706;SDS011;36332;51.384;0.040;2023-09-18T12:27:46;2.10;;;1.17;;
27706;SDS011;36332;51.384;0.040;2023-09-18T12:30:14;2.30;;;1.10;;
27706;SDS011;36332;51.384;0.040;2023-09-18T12:32:48;3.45;;;1.00;;
27706;SDS011;36332;51.384;0.040;2023-09-18T12:35:16;2.03;;;1.20;;
27706;SDS011;36332;51.384;0.040;2023-09-18T12:37:45;3.80;;;1.10;;
27706;SDS011;36332;51.384;0.040;2023-09-18T12:40:23;2.67;;;1.33;;
27706;SDS011;36332;51.384;0.040;2023-09-18T12:42:56;3.50;;;1.48;;
27706;SDS011;36332;51.384;0.040;2023-09-18T12:45:25;4.03;;;1.65;;
27706;SDS011;36332;51.384;0.040;2023-09-18T12:47:54;2.53;;;1.80;;
27706;SDS011;36332;51.384;0.040;2023-09-18T12:50:24;2.28;;;1.55;;
27706;SDS011;36332;51.384;0.040;2023-09-18T12:52:52;3.63;;;1.27;;
27706;SDS011;36332;51.384;0.040;2023-09-18T12:55:23;3.25;;;1.58;;
27706;SDS011;36332;51.384;0.040;2023-09-18T12:57:52;2.38;;;1.65;;
27706;SDS011;36332;51.384;0.040;2023-09-18T13:00:21;3.65;;;1.67;;
27706;SDS011;36332;51.384;0.040;2023-09-18T13:02:50;2.97;;;1.63;;
27706;SDS011;36332;51.384;0.040;2023-09-18T13:05:22;4.40;;;1.58;;
27706;SDS011;36332;51.384;0.040;2023-09-18T13:07:54;2.90;;;1.20;;
27706;SDS011;36332;51.384;0.040;2023-09-18T13:10:22;5.22;;;1.30;;
27706;SDS011;36332;51.384;0.040;2023-09-18T13:12:54;5.40;;;1.30;;
27706;SDS011;36332;51.384;0.040;2023-09-18T13:15:26;1.75;;;1.15;;
27706;SDS011;36332;51.384;0.040;2023-09-18T13:17:59;3.05;;;1.40;;
27706;SDS011;36332;51.384;0.040;2023-09-18T13:20:28;3.38;;;1.20;;
27706;SDS011;36332;51.384;0.040;2023-09-18T13:22:59;2.35;;;1.45;;
27706;SDS011;36332;51.384;0.040;2023-09-18T13:25:35;1.13;;;1.02;;
27706;SDS011;36332;51.384;0.040;2023-09-18T13:28:08;3.63;;;1.30;;
27706;SDS011;36332;51.384;0.040;2023-09-18T13:30:37;2.10;;;1.20;;
27706;SDS011;36332;51.384;0.040;2023-09-18T13:33:07;3.65;;;1.30;;
27706;SDS011;36332;51.384;0.040;2023-09-18T13:35:38;1.35;;;1.25;;
27706;SDS011;36332;51.384;0.040;2023-09-18T13:38:07;2.00;;;1.50;;
27706;SDS011;36332;51.384;0.040;2023-09-18T13:40:35;3.25;;;1.50;;
27706;SDS011;36332;51.384;0.040;2023-09-18T13:43:04;3.92;;;1.67;;
27706;SDS011;36332;51.384;0.040;2023-09-18T13:45:32;4.13;;;1.70;;
27706;SDS011;36332;51.384;0.040;2023-09-18T13:48:03;3.47;;;1.90;;
27706;SDS011;36332;51.384;0.040;2023-09-18T13:50:32;2.40;;;1.65;;
27706;SDS011;36332;51.384;0.040;2023-09-18T13:53:01;2.03;;;1.35;;
27706;SDS011;36332;51.384;0.040;2023-09-18T13:55:31;1.90;;;1.55;;
27706;SDS011;36332;51.384;0.040;2023-09-18T13:58:00;2.47;;;1.83;;
27706;SDS011;36332;51.384;0.040;2023-09-18T14:00:31;4.50;;;1.70;;
27706;SDS011;36332;51.384;0.040;2023-09-18T14:02:59;3.40;;;1.85;;
27706;SDS011;36332;51.384;0.040;2023-09-18T14:05:27;4.35;;;1.95;;
27706;SDS011;36332;51.384;0.040;2023-09-18T14:07:57;3.80;;;2.00;;
27706;SDS011;36332;51.384;0.040;2023-09-18T14:10:28;2.70;;;1.60;;
27706;SDS011;36332;51.384;0.040;2023-09-18T14:12:55;6.20;;;2.88;;
27706;SDS011;36332;51.384;0.040;2023-09-18T14:15:24;6.45;;;2.15;;
27706;SDS011;36332;51.384;0.040;2023-09-18T14:18:11;7.07;;;2.80;;
27706;SDS011;36332;51.384;0.040;2023-09-18T14:20:40;5.43;;;2.40;;
27706;SDS011;36332;51.384;0.040;2023-09-18T14:23:08;12.75;;;2.75;;
27706;SDS011;36332;51.384;0.040;2023-09-18T14:25:35;5.43;;;2.50;;
27706;SDS011;36332;51.384;0.040;2023-09-18T14:28:03;7.75;;;2.22;;
27706;SDS011;36332;51.384;0.040;2023-09-18T14:30:31;6.30;;;1.77;;
27706;SDS011;36332;51.384;0.040;2023-09-18T14:33:00;4.22;;;1.90;;
27706;SDS011;36332;51.384;0.040;2023-09-18T14:35:28;9.25;;;2.53;;
27706;SDS011;36332;51.384;0.040;2023-09-18T14:37:56;5.70;;;2.30;;
27706;SDS011;36332;51.384;0.040;2023-09-18T14:40:24;6.47;;;2.53;;
27706;SDS011;36332;51.384;0.040;2023-09-18T14:42:51;4.85;;;2.40;;
27706;SDS011;36332;51.384;0.040;2023-09-18T14:45:19;11.38;;;2.63;;
27706;SDS011;36332;51.384;0.040;2023-09-18T14:47:47;7.72;;;2.40;;
27706;SDS011;36332;51.384;0.040;2023-09-18T14:50:15;9.82;;;3.10;;
27706;SDS011;36332;51.384;0.040;2023-09-18T14:52:43;4.88;;;1.73;;
27706;SDS011;36332;51.384;0.040;2023-09-18T14:55:10;3.90;;;1.95;;
27706;SDS011;36332;51.384;0.040;2023-09-18T14:57:40;5.30;;;2.45;;
27706;SDS011;36332;51.384;0.040;2023-09-18T15:00:07;6.72;;;2.20;;
27706;SDS011;36332;51.384;0.040;2023-09-18T15:02:35;3.92;;;1.88;;
27706;SDS011;36332;51.384;0.040;2023-09-18T15:05:03;3.97;;;1.73;;
27706;SDS011;36332;51.384;0.040;2023-09-18T15:07:36;3.47;;;1.48;;